createdAt,value
2019-01-16T00:00:37.851Z,4.53
2019-01-16T00:03:24.780Z,3.47
2019-01-16T00:06:10.341Z,2.80
2019-01-16T00:09:12.467Z,3.10
2019-01-16T00:11:56.505Z,4.10
2019-01-16T00:14:33.251Z,3.50
2019-01-16T00:17:38.215Z,3.17
2019-01-16T00:20:20.007Z,3.23
2019-01-16T00:23:06.801Z,2.60
2019-01-16T00:25:56.206Z,3.03
2019-01-16T00:28:42.992Z,3.17
2019-01-16T00:31:29.739Z,3.13
2019-01-16T00:34:15.181Z,2.80
2019-01-16T00:37:01.918Z,3.07
2019-01-16T00:39:51.440Z,2.50
2019-01-16T00:42:47.253Z,2.53
2019-01-16T00:45:21.594Z,3.10
2019-01-16T00:48:07.366Z,3.03
2019-01-16T00:50:50.490Z,2.47
2019-01-16T00:53:35.671Z,2.70
2019-01-16T00:56:22.459Z,2.70
2019-01-16T00:59:07.826Z,2.93
2019-01-16T01:01:57.648Z,2.70
2019-01-16T01:04:43.374Z,2.90
2019-01-16T01:07:33.037Z,2.80
2019-01-16T01:10:05.302Z,3.40
2019-01-16T01:12:54.828Z,2.73
2019-01-16T01:15:47.838Z,2.07
2019-01-16T01:18:32.006Z,2.50
2019-01-16T01:21:12.920Z,2.53
2019-01-16T01:24:05.853Z,2.53
2019-01-16T01:27:01.858Z,2.17
2019-01-16T01:29:51.375Z,2.77
2019-01-16T01:32:36.778Z,2.33
2019-01-16T01:35:22.298Z,2.57
2019-01-16T01:38:09.116Z,2.90
2019-01-16T01:41:00.565Z,2.13
2019-01-16T01:43:53.412Z,2.73
2019-01-16T01:46:35.969Z,2.10
2019-01-16T01:49:18.455Z,2.30
2019-01-16T01:52:08.036Z,2.53
2019-01-16T01:54:47.928Z,2.30
2019-01-16T01:57:37.487Z,2.50
2019-01-16T02:00:24.414Z,2.27
2019-01-16T02:03:14.187Z,2.57
2019-01-16T02:06:06.887Z,2.27
2019-01-16T02:08:43.053Z,3.40
2019-01-16T02:11:29.928Z,2.43
2019-01-16T02:14:28.724Z,2.97
2019-01-16T02:17:24.251Z,2.43
2019-01-16T02:20:06.204Z,3.10
2019-01-16T02:22:48.031Z,2.30
2019-01-16T02:25:46.805Z,2.70
2019-01-16T02:28:20.543Z,2.47
2019-01-16T02:31:07.319Z,2.47
2019-01-16T02:34:09.164Z,2.20
2019-01-16T02:36:56.045Z,1.97
2019-01-16T02:39:33.226Z,2.73
2019-01-16T02:42:10.336Z,2.10
2019-01-16T02:44:55.780Z,2.83
2019-01-16T02:47:41.363Z,2.73
2019-01-16T02:50:28.085Z,2.33
2019-01-16T02:53:19.909Z,1.97
2019-01-16T02:55:59.881Z,2.37
2019-01-16T02:58:45.187Z,2.23
2019-01-16T03:01:34.678Z,2.40
2019-01-16T03:04:20.053Z,2.33
2019-01-16T03:07:10.316Z,2.20
2019-01-16T03:10:03.135Z,2.20
2019-01-16T03:12:49.926Z,2.80
2019-01-16T03:15:35.228Z,2.63
2019-01-16T03:18:15.160Z,2.37
2019-01-16T03:21:04.752Z,2.40
2019-01-16T03:23:46.108Z,2.20
2019-01-16T03:26:32.883Z,2.20
2019-01-16T03:29:22.362Z,2.50
2019-01-16T03:32:03.614Z,2.20
2019-01-16T03:34:54.826Z,2.10
2019-01-16T03:37:53.989Z,2.10
2019-01-16T03:40:43.375Z,2.10
2019-01-16T03:43:31.716Z,2.40
2019-01-16T03:46:12.607Z,2.73
2019-01-16T03:49:12.949Z,2.40
2019-01-16T03:51:47.520Z,2.47
2019-01-16T03:54:38.551Z,1.97
2019-01-16T03:57:25.276Z,2.30
2019-01-16T04:00:10.594Z,2.23
2019-01-16T04:03:15.659Z,2.40
2019-01-16T04:05:58.496Z,2.27
2019-01-16T04:08:34.795Z,1.93
2019-01-16T04:11:14.191Z,2.43
2019-01-16T04:13:55.144Z,2.23
2019-01-16T04:16:54.098Z,2.30
2019-01-16T04:19:49.794Z,2.33
2019-01-16T04:22:35.259Z,2.37
2019-01-16T04:25:28.091Z,2.37
2019-01-16T04:28:13.457Z,1.70
2019-01-16T04:31:09.436Z,2.47
2019-01-16T04:34:02.248Z,1.80
2019-01-16T04:36:54.970Z,1.80
2019-01-16T04:39:40.156Z,1.57
2019-01-16T04:42:29.935Z,2.20
2019-01-16T04:45:34.794Z,2.50
2019-01-16T04:48:14.151Z,2.40
2019-01-16T04:51:01.273Z,1.90
2019-01-16T04:53:46.791Z,2.20
2019-01-16T04:56:32.388Z,1.90
2019-01-16T04:59:28.532Z,1.80
2019-01-16T05:02:24.232Z,1.73
2019-01-16T05:05:13.446Z,1.93
2019-01-16T05:07:58.827Z,1.57
2019-01-16T05:10:44.537Z,1.87
2019-01-16T05:13:40.236Z,2.00
2019-01-16T05:16:29.746Z,1.83
2019-01-16T05:19:25.285Z,2.27
2019-01-16T05:22:14.816Z,2.60
2019-01-16T05:24:49.922Z,2.10
2019-01-16T05:27:34.883Z,2.20
2019-01-16T05:30:20.267Z,2.00
2019-01-16T05:33:01.796Z,1.73
2019-01-16T05:36:07.092Z,2.20
2019-01-16T05:38:52.679Z,1.87
2019-01-16T05:41:57.529Z,1.73
2019-01-16T05:44:47.145Z,1.80
2019-01-16T05:47:22.761Z,1.97
2019-01-16T05:49:58.275Z,1.83
2019-01-16T05:52:45.157Z,2.43
2019-01-16T05:55:30.618Z,2.30
2019-01-16T05:58:06.511Z,2.27
2019-01-16T06:00:51.958Z,2.30
2019-01-16T06:03:41.871Z,1.90
2019-01-16T06:06:34.207Z,1.90
2019-01-16T06:09:19.815Z,2.00
2019-01-16T06:12:15.597Z,2.50
2019-01-16T06:15:14.876Z,1.93
2019-01-16T06:18:10.412Z,2.07
2019-01-16T06:21:12.449Z,2.60
2019-01-16T06:24:01.166Z,2.00
2019-01-16T06:26:46.060Z,2.60
2019-01-16T06:29:45.032Z,2.40
2019-01-16T06:32:30.175Z,2.20
2019-01-16T06:35:13.011Z,1.90
2019-01-16T06:37:58.515Z,2.50
2019-01-16T06:40:44.160Z,2.47
2019-01-16T06:43:30.921Z,1.90
2019-01-16T06:46:05.808Z,1.80
2019-01-16T06:48:59.404Z,1.70
2019-01-16T06:51:58.355Z,1.83
2019-01-16T06:55:03.221Z,2.53
2019-01-16T06:57:52.754Z,2.07
2019-01-16T07:00:39.521Z,1.83
2019-01-16T07:03:32.105Z,2.03
2019-01-16T07:06:21.746Z,1.50
2019-01-16T07:09:07.296Z,2.10
2019-01-16T07:11:45.495Z,1.93
2019-01-16T07:14:41.228Z,2.73
2019-01-16T07:17:36.933Z,2.00
2019-01-16T07:20:31.434Z,1.83
2019-01-16T07:23:18.262Z,1.80
2019-01-16T07:26:16.956Z,2.30
2019-01-16T07:28:51.738Z,2.43
2019-01-16T07:31:37.213Z,2.87
2019-01-16T07:34:23.997Z,2.60
2019-01-16T07:37:16.693Z,2.67
2019-01-16T07:40:03.478Z,2.47
2019-01-16T07:42:46.911Z,1.83
2019-01-16T07:45:40.846Z,1.70
2019-01-16T07:48:36.364Z,2.03
2019-01-16T07:51:27.485Z,2.63
2019-01-16T07:54:13.145Z,2.10
2019-01-16T07:56:58.697Z,2.10
2019-01-16T07:59:44.245Z,2.00
2019-01-16T08:02:29.886Z,1.77
2019-01-16T08:05:14.969Z,2.10
2019-01-16T08:08:01.774Z,2.10
2019-01-16T08:10:48.584Z,2.20
2019-01-16T08:13:47.651Z,2.17
2019-01-16T08:16:33.033Z,2.07
2019-01-16T08:19:18.845Z,1.83
2019-01-16T08:22:04.639Z,1.63
2019-01-16T08:24:50.730Z,2.20
2019-01-16T08:27:43.585Z,1.90
2019-01-16T08:30:30.339Z,2.10
2019-01-16T08:33:35.279Z,1.77
2019-01-16T08:36:28.269Z,1.97
2019-01-16T08:39:20.892Z,1.70
2019-01-16T08:42:10.283Z,2.30
2019-01-16T08:44:55.817Z,1.73
2019-01-16T08:48:01.107Z,2.37
2019-01-16T08:50:46.356Z,1.70
2019-01-16T08:53:31.875Z,1.70
2019-01-16T08:56:20.449Z,1.90
2019-01-16T08:58:58.515Z,1.87
2019-01-16T09:01:42.607Z,1.90
2019-01-16T09:04:32.161Z,2.37
2019-01-16T09:07:08.769Z,1.97
2019-01-16T09:09:54.402Z,1.90
2019-01-16T09:12:33.764Z,2.30
2019-01-16T09:15:34.971Z,1.97
2019-01-16T09:18:30.708Z,2.00
2019-01-16T09:21:22.524Z,1.73
2019-01-16T09:24:21.636Z,2.10
2019-01-16T09:27:11.022Z,2.20
2019-01-16T09:29:57.826Z,1.80
2019-01-16T09:32:44.572Z,2.20
2019-01-16T09:35:49.702Z,1.63
2019-01-16T09:38:31.529Z,1.63
2019-01-16T09:41:14.413Z,1.73
2019-01-16T09:43:57.229Z,2.03
2019-01-16T09:46:42.868Z,1.70
2019-01-16T09:49:22.679Z,1.60
2019-01-16T09:52:18.375Z,1.80
2019-01-16T09:55:21.150Z,2.23
2019-01-16T09:58:00.792Z,1.90
2019-01-16T10:00:38.168Z,2.10
2019-01-16T10:03:24.940Z,1.57
2019-01-16T10:06:11.681Z,1.70
2019-01-16T10:09:01.379Z,1.60
2019-01-16T10:11:47.058Z,1.90
2019-01-16T10:14:30.951Z,1.43
2019-01-16T10:17:23.883Z,1.47
2019-01-16T10:20:07.492Z,2.10
2019-01-16T10:22:57.009Z,1.50
2019-01-16T10:25:37.086Z,1.83
2019-01-16T10:28:23.811Z,1.60
2019-01-16T10:31:09.435Z,1.60
2019-01-16T10:34:11.556Z,1.60
2019-01-16T10:36:57.032Z,1.63
2019-01-16T10:39:49.623Z,1.50
2019-01-16T10:42:25.151Z,1.60
2019-01-16T10:45:05.288Z,1.90
2019-01-16T10:47:48.963Z,1.67
2019-01-16T10:50:34.285Z,1.83
2019-01-16T10:53:23.712Z,1.90
2019-01-16T10:56:10.504Z,1.60
2019-01-16T10:59:09.515Z,1.80
2019-01-16T11:01:55.153Z,1.70
2019-01-16T11:04:41.960Z,1.90
2019-01-16T11:07:31.409Z,3.73
2019-01-16T11:10:16.624Z,3.73
2019-01-16T11:13:05.683Z,3.63
2019-01-16T11:15:51.550Z,3.13
2019-01-16T11:18:42.353Z,3.27
2019-01-16T11:21:35.349Z,3.63
2019-01-16T11:24:37.608Z,2.97
2019-01-16T11:27:23.155Z,4.00
2019-01-16T11:30:29.054Z,3.13
2019-01-16T11:33:14.633Z,2.70
2019-01-16T11:35:57.285Z,3.40
2019-01-16T11:38:52.570Z,2.80
2019-01-16T11:41:45.273Z,3.33
2019-01-16T11:44:31.733Z,2.90
2019-01-16T11:47:17.100Z,3.80
2019-01-16T11:50:09.782Z,3.20
2019-01-16T11:52:55.370Z,3.07
2019-01-16T11:55:54.633Z,3.10
2019-01-16T11:58:40.420Z,3.03
2019-01-16T12:01:26.069Z,3.43
2019-01-16T12:04:25.090Z,3.50
2019-01-16T12:07:17.669Z,3.77
2019-01-16T12:10:16.226Z,3.03
2019-01-16T12:13:11.832Z,2.83
2019-01-16T12:16:04.779Z,3.20
2019-01-16T12:18:50.214Z,3.70
2019-01-16T12:21:46.254Z,3.43
2019-01-16T12:24:35.632Z,3.00
2019-01-16T12:27:37.264Z,3.80
2019-01-16T12:30:16.167Z,2.77
2019-01-16T12:32:51.922Z,3.70
2019-01-16T12:35:44.439Z,3.53
2019-01-16T12:38:31.200Z,2.80
2019-01-16T12:41:15.017Z,3.03
2019-01-16T12:44:16.662Z,3.20
2019-01-16T12:47:18.362Z,2.60
2019-01-16T12:50:20.058Z,2.93
2019-01-16T12:53:13.542Z,2.70
2019-01-16T12:56:00.308Z,3.07
2019-01-16T12:58:52.768Z,2.87
2019-01-16T13:01:42.384Z,2.40
2019-01-16T13:04:35.392Z,3.37
2019-01-16T13:07:17.327Z,3.10
2019-01-16T13:10:07.614Z,2.50
2019-01-16T13:12:56.067Z,3.10
2019-01-16T13:15:53.393Z,3.20
2019-01-16T13:18:43.045Z,2.00
2019-01-16T13:21:39.821Z,2.33
2019-01-16T13:24:19.725Z,2.97
2019-01-16T13:27:01.598Z,3.10
2019-01-16T13:29:48.369Z,2.57
2019-01-16T13:32:25.075Z,2.50
2019-01-16T13:35:27.193Z,2.57
2019-01-16T13:38:13.968Z,2.17
2019-01-16T13:41:02.768Z,2.70
2019-01-16T13:44:01.355Z,2.43
2019-01-16T13:47:00.225Z,2.17
2019-01-16T13:49:46.013Z,2.57
2019-01-16T13:52:32.767Z,2.20
2019-01-16T13:55:37.697Z,2.20
2019-01-16T13:58:23.359Z,2.40
2019-01-16T14:01:13.046Z,1.73
2019-01-16T14:03:54.731Z,2.10
2019-01-16T14:06:50.840Z,1.80
2019-01-16T14:09:49.331Z,2.07
2019-01-16T14:12:45.226Z,2.50
2019-01-16T14:15:31.961Z,2.90
2019-01-16T14:18:08.344Z,1.87
2019-01-16T14:20:44.727Z,2.20
2019-01-16T14:23:31.647Z,2.07
2019-01-16T14:26:17.141Z,2.43
2019-01-16T14:29:11.629Z,2.30
2019-01-16T14:31:58.288Z,2.20
2019-01-16T14:35:03.357Z,2.60
2019-01-16T14:37:50.125Z,2.07
2019-01-16T14:40:35.521Z,1.70
2019-01-16T14:43:22.314Z,3.33
2019-01-16T14:46:12.114Z,2.77
2019-01-16T14:49:07.814Z,1.90
2019-01-16T14:51:59.677Z,2.07
2019-01-16T14:54:46.402Z,2.50
2019-01-16T14:57:51.510Z,2.20
2019-01-16T15:00:56.745Z,1.80
2019-01-16T15:03:39.140Z,2.37
2019-01-16T15:06:34.720Z,2.30
2019-01-16T15:09:30.588Z,1.93
2019-01-16T15:12:17.562Z,2.23
2019-01-16T15:15:06.957Z,2.23
2019-01-16T15:17:56.731Z,2.87
2019-01-16T15:20:42.164Z,2.23
2019-01-16T15:23:27.693Z,2.10
2019-01-16T15:26:02.294Z,2.43
2019-01-16T15:28:44.413Z,2.57
2019-01-16T15:31:29.907Z,3.30
2019-01-16T15:34:16.745Z,2.90
2019-01-16T15:37:21.858Z,2.23
2019-01-16T15:40:07.355Z,2.47
2019-01-16T15:43:00.141Z,2.63
2019-01-16T15:45:45.579Z,2.50
2019-01-16T15:48:35.537Z,2.17
2019-01-16T15:51:22.300Z,2.40
2019-01-16T15:54:07.825Z,1.83
2019-01-16T15:56:54.583Z,2.10
2019-01-16T15:59:50.575Z,1.77
2019-01-16T16:02:33.964Z,3.03
2019-01-16T16:05:19.459Z,1.70
2019-01-16T16:07:52.220Z,2.17
2019-01-16T16:10:41.986Z,1.93
2019-01-16T16:13:31.765Z,1.83
2019-01-16T16:16:27.585Z,1.80
2019-01-16T16:19:26.583Z,2.10
2019-01-16T16:22:19.209Z,2.20
2019-01-16T16:25:08.034Z,1.80
2019-01-16T16:27:54.878Z,1.70
2019-01-16T16:30:40.443Z,2.13
2019-01-16T16:33:26.069Z,1.60
2019-01-16T16:36:23.134Z,1.77
2019-01-16T16:39:08.890Z,1.60
2019-01-16T16:41:51.652Z,1.57
2019-01-16T16:44:44.220Z,2.10
2019-01-16T16:47:33.580Z,2.00
2019-01-16T16:50:10.499Z,1.93
2019-01-16T16:52:57.256Z,1.90
2019-01-16T16:55:56.339Z,1.90
2019-01-16T16:58:54.494Z,2.23
2019-01-16T17:01:49.899Z,1.90
2019-01-16T17:04:27.321Z,2.00
2019-01-16T17:07:32.438Z,1.80
2019-01-16T17:10:22.326Z,1.93
2019-01-16T17:13:01.959Z,1.50
2019-01-16T17:16:03.598Z,1.60
2019-01-16T17:19:02.410Z,2.20
2019-01-16T17:21:55.207Z,1.60
2019-01-16T17:24:32.604Z,1.83
2019-01-16T17:27:25.148Z,1.80
2019-01-16T17:30:21.246Z,1.70
2019-01-16T17:33:07.364Z,2.00
2019-01-16T17:35:52.282Z,1.97
2019-01-16T17:38:39.069Z,2.43
2019-01-16T17:41:41.120Z,1.77
2019-01-16T17:44:30.921Z,2.20
2019-01-16T17:47:17.645Z,1.67
2019-01-16T17:50:07.106Z,1.47
2019-01-16T17:53:05.780Z,1.87
2019-01-16T17:55:52.579Z,2.00
2019-01-16T17:58:51.307Z,2.03
2019-01-16T18:01:29.462Z,1.50
2019-01-16T18:04:25.083Z,2.00
2019-01-16T18:07:17.511Z,1.77
2019-01-16T18:10:04.237Z,1.87
2019-01-16T18:12:53.790Z,1.90
2019-01-16T18:15:40.529Z,1.60
2019-01-16T18:18:26.338Z,1.90
2019-01-16T18:21:13.113Z,1.97
2019-01-16T18:23:58.985Z,1.63
2019-01-16T18:26:44.907Z,2.10
2019-01-16T18:29:23.512Z,1.60
2019-01-16T18:32:10.226Z,1.97
2019-01-16T18:34:55.826Z,1.50
2019-01-16T18:37:51.859Z,1.57
2019-01-16T18:40:42.144Z,1.97
2019-01-16T18:43:20.709Z,1.90
2019-01-16T18:46:10.229Z,1.50
2019-01-16T18:48:51.774Z,1.50
2019-01-16T18:51:44.549Z,1.80
2019-01-16T18:54:24.041Z,1.60
2019-01-16T18:57:14.235Z,2.60
2019-01-16T19:00:13.590Z,2.13
2019-01-16T19:03:06.045Z,1.73
2019-01-16T19:05:53.445Z,1.70
2019-01-16T19:08:53.201Z,1.53
2019-01-16T19:14:41.480Z,1.83
2019-01-16T19:17:52.230Z,1.93
2019-01-16T19:20:47.031Z,2.33
2019-01-16T19:23:33.328Z,2.33
2019-01-16T19:26:31.124Z,2.40
2019-01-16T19:29:17.507Z,2.07
2019-01-16T19:31:59.349Z,2.03
2019-01-16T19:34:50.541Z,1.97
2019-01-16T19:37:46.896Z,1.70
2019-01-16T19:40:53.022Z,2.13
2019-01-16T19:43:42.787Z,1.80
2019-01-16T19:46:34.423Z,2.27
2019-01-16T19:49:23.267Z,1.53
2019-01-16T19:52:10.537Z,2.23
2019-01-16T19:55:18.979Z,1.97
2019-01-16T19:58:06.652Z,1.87
2019-01-16T20:00:57.968Z,1.67
2019-01-16T20:03:50.494Z,1.97
2019-01-16T20:06:55.555Z,1.60
2019-01-16T20:09:46.143Z,2.43
2019-01-16T20:12:34.255Z,1.80
2019-01-16T20:15:22.635Z,2.00
2019-01-16T20:18:33.820Z,1.70
2019-01-16T20:21:31.828Z,2.40
2019-01-16T20:24:40.865Z,2.57
2019-01-16T20:27:27.230Z,2.60
2019-01-16T20:30:27.980Z,2.50
2019-01-16T20:33:25.334Z,2.30
2019-01-16T20:36:09.621Z,2.17
2019-01-16T20:38:56.135Z,2.23
2019-01-16T20:41:46.062Z,2.30
2019-01-16T20:44:28.838Z,2.77
2019-01-16T20:47:20.049Z,2.60
2019-01-16T20:50:06.743Z,2.00
2019-01-16T20:52:53.643Z,2.90
2019-01-16T20:55:45.995Z,2.60
2019-01-16T20:58:32.968Z,2.00
2019-01-16T21:01:23.008Z,2.53
2019-01-16T21:04:25.031Z,1.80
2019-01-16T21:07:08.650Z,2.83
2019-01-16T21:09:54.969Z,2.00
2019-01-16T21:12:51.937Z,2.27
2019-01-16T21:15:31.378Z,2.00
2019-01-16T21:18:25.337Z,2.23
2019-01-16T21:21:08.267Z,2.60
2019-01-16T21:24:03.652Z,2.07
2019-01-16T21:26:50.909Z,2.07
2019-01-16T21:29:54.124Z,2.87
2019-01-16T21:32:34.875Z,2.70
2019-01-16T21:35:22.309Z,2.67
2019-01-16T21:38:03.436Z,2.70
2019-01-16T21:40:52.319Z,2.10
2019-01-16T21:43:37.709Z,2.13
2019-01-16T21:46:28.755Z,1.97
2019-01-16T21:49:19.932Z,2.47
2019-01-16T21:52:12.802Z,2.40
2019-01-16T21:55:07.354Z,2.27
2019-01-16T21:57:57.714Z,2.37
2019-01-16T22:00:43.826Z,2.27
2019-01-16T22:03:30.657Z,2.77
2019-01-16T22:06:17.819Z,2.00
2019-01-16T22:09:03.434Z,2.30
2019-01-16T22:11:50.925Z,2.40
2019-01-16T22:14:38.349Z,2.30
2019-01-16T22:17:38.241Z,2.03
2019-01-16T22:20:38.460Z,2.00
2019-01-16T22:23:25.398Z,2.60
2019-01-16T22:26:00.979Z,2.20
2019-01-16T22:28:47.806Z,2.60
2019-01-16T22:31:40.947Z,2.57
2019-01-16T22:34:28.162Z,2.07
2019-01-16T22:37:07.730Z,2.43
2019-01-16T22:39:53.218Z,3.20
2019-01-16T22:42:48.161Z,2.10
2019-01-16T22:45:33.937Z,2.03
2019-01-16T22:48:17.170Z,2.47
2019-01-16T22:51:19.473Z,2.27
2019-01-16T22:54:06.624Z,2.53
2019-01-16T22:56:53.706Z,2.10
2019-01-16T22:59:43.916Z,2.40
2019-01-16T23:02:48.539Z,2.33
2019-01-16T23:06:05.039Z,2.20
2019-01-16T23:09:04.792Z,2.07
2019-01-16T23:11:50.388Z,2.00
2019-01-16T23:14:58.174Z,2.03
2019-01-16T23:17:53.937Z,1.90
2019-01-16T23:20:47.944Z,2.20
2019-01-16T23:23:32.617Z,2.10
2019-01-16T23:26:10.502Z,1.97
2019-01-16T23:28:57.642Z,2.03
2019-01-16T23:31:44.676Z,2.27
2019-01-16T23:34:24.386Z,2.17
2019-01-16T23:37:11.261Z,1.80
2019-01-16T23:40:05.440Z,2.00
2019-01-16T23:43:08.002Z,1.80
2019-01-16T23:46:16.615Z,2.00
2019-01-16T23:48:59.896Z,1.80
2019-01-16T23:51:50.604Z,2.30
2019-01-16T23:54:51.139Z,2.60
2019-01-16T23:57:35.303Z,1.90
